createdAt,value
2022-10-13T00:00:03.558Z,8.50
2022-10-13T00:03:10.125Z,17.80
2022-10-13T00:06:18.870Z,10.63
2022-10-13T00:09:26.582Z,13.03
2022-10-13T00:12:35.994Z,10.53
2022-10-13T00:15:44.541Z,9.90
2022-10-13T00:18:51.530Z,9.00
2022-10-13T00:21:57.934Z,8.13
2022-10-13T00:25:06.365Z,10.57
2022-10-13T00:28:13.331Z,9.67
2022-10-13T00:31:21.197Z,14.67
2022-10-13T00:34:27.415Z,11.83
2022-10-13T00:37:33.792Z,6.80
2022-10-13T00:40:48.948Z,13.90
2022-10-13T00:43:58.497Z,8.73
2022-10-13T00:47:04.804Z,14.80
2022-10-13T00:50:15.822Z,14.13
2022-10-13T00:53:24.406Z,12.20
2022-10-13T00:56:32.125Z,10.20
2022-10-13T00:59:40.462Z,15.90
2022-10-13T01:02:46.948Z,12.93
2022-10-13T01:05:55.814Z,9.80
2022-10-13T01:09:01.871Z,15.93
2022-10-13T01:12:20.675Z,10.30
2022-10-13T01:15:33.105Z,11.30
2022-10-13T01:18:46.491Z,7.13
2022-10-13T01:22:03.247Z,15.10
2022-10-13T01:25:25.141Z,9.97
2022-10-13T01:28:51.117Z,6.73
2022-10-13T01:32:08.311Z,9.07
2022-10-13T01:35:20.031Z,11.47
2022-10-13T01:38:34.679Z,6.63
2022-10-13T01:41:44.124Z,15.13
2022-10-13T01:44:54.091Z,12.90
2022-10-13T01:48:04.362Z,8.60
2022-10-13T01:51:15.771Z,14.23
2022-10-13T01:54:22.240Z,11.47
2022-10-13T01:57:33.039Z,8.60
2022-10-13T02:00:45.065Z,8.10
2022-10-13T02:04:02.602Z,8.23
2022-10-13T02:07:17.410Z,9.53
2022-10-13T02:10:28.550Z,9.80
2022-10-13T02:13:38.225Z,6.67
2022-10-13T02:16:47.621Z,6.67
2022-10-13T02:19:56.780Z,9.17
2022-10-13T02:23:08.472Z,8.97
2022-10-13T02:26:15.613Z,14.90
2022-10-13T02:29:22.546Z,8.10
2022-10-13T02:32:28.988Z,10.67
2022-10-13T02:35:36.859Z,20.00
2022-10-13T02:38:42.916Z,13.43
2022-10-13T02:41:49.495Z,11.40
2022-10-13T02:44:55.788Z,13.37
2022-10-13T02:48:02.032Z,8.17
2022-10-13T02:51:09.732Z,11.63
2022-10-13T02:54:15.855Z,9.47
2022-10-13T02:57:22.274Z,14.53
2022-10-13T03:00:28.533Z,19.53
2022-10-13T03:03:34.606Z,10.03
2022-10-13T03:06:42.125Z,10.70
2022-10-13T03:09:48.118Z,8.87
2022-10-13T03:12:55.699Z,9.47
2022-10-13T03:16:01.664Z,10.10
2022-10-13T03:19:07.888Z,9.13
2022-10-13T03:22:15.675Z,12.07
2022-10-13T03:25:21.643Z,14.30
2022-10-13T03:28:27.960Z,7.87
2022-10-13T03:31:33.876Z,9.13
2022-10-13T03:34:40.288Z,32.03
2022-10-13T03:37:47.943Z,21.80
2022-10-13T03:40:54.235Z,20.90
2022-10-13T03:44:00.533Z,19.87
2022-10-13T03:47:07.157Z,22.60
2022-10-13T03:50:13.270Z,17.43
2022-10-13T03:53:21.176Z,18.07
2022-10-13T03:56:28.629Z,19.20
2022-10-13T03:59:36.974Z,11.30
2022-10-13T04:02:43.722Z,11.87
2022-10-13T04:05:49.786Z,11.60
2022-10-13T04:08:57.290Z,10.00
2022-10-13T04:12:03.262Z,10.60
2022-10-13T04:15:10.786Z,11.40
2022-10-13T04:18:16.957Z,9.87
2022-10-13T04:21:24.659Z,7.33
2022-10-13T04:24:32.315Z,7.93
2022-10-13T04:27:39.580Z,10.90
2022-10-13T04:30:49.271Z,11.20
2022-10-13T04:33:56.022Z,8.00
2022-10-13T04:37:01.949Z,9.97
2022-10-13T04:40:10.675Z,8.00
2022-10-13T04:43:16.614Z,7.87
2022-10-13T04:46:24.901Z,7.40
2022-10-13T04:49:32.083Z,16.00
2022-10-13T04:52:38.148Z,29.43
2022-10-13T04:55:45.885Z,14.47
2022-10-13T04:58:52.080Z,9.60
2022-10-13T05:01:58.059Z,18.10
2022-10-13T05:05:04.314Z,9.53
2022-10-13T05:08:10.644Z,10.77
2022-10-13T05:11:20.115Z,10.43
2022-10-13T05:14:26.792Z,5.20
2022-10-13T05:17:35.356Z,7.90
2022-10-13T05:20:41.604Z,5.73
2022-10-13T05:23:48.215Z,6.07
2022-10-13T05:26:55.945Z,5.33
2022-10-13T05:30:02.248Z,5.03
2022-10-13T05:33:09.354Z,7.07
2022-10-13T05:36:19.686Z,3.37
2022-10-13T05:39:26.161Z,5.80
2022-10-13T05:42:34.308Z,4.03
2022-10-13T05:45:42.050Z,5.67
2022-10-13T05:48:48.432Z,4.07
2022-10-13T05:51:58.726Z,4.20
2022-10-13T05:55:10.355Z,7.20
2022-10-13T05:58:18.466Z,16.47
2022-10-13T06:01:26.543Z,15.30
2022-10-13T06:04:37.547Z,12.07
2022-10-13T06:07:44.928Z,14.50
2022-10-13T06:10:51.063Z,18.33
2022-10-13T06:13:59.023Z,15.07
2022-10-13T06:17:05.423Z,14.70
2022-10-13T06:20:12.476Z,14.43
2022-10-13T06:23:18.673Z,9.93
2022-10-13T06:26:24.760Z,5.90
2022-10-13T06:29:33.528Z,6.53
2022-10-13T06:32:39.638Z,6.00
2022-10-13T06:35:45.876Z,8.00
2022-10-13T06:38:52.146Z,8.40
2022-10-13T06:41:58.586Z,10.93
2022-10-13T06:45:06.891Z,17.27
2022-10-13T06:48:13.292Z,10.87
2022-10-13T06:51:19.995Z,17.63
2022-10-13T06:54:25.941Z,11.03
2022-10-13T06:57:32.370Z,10.93
2022-10-13T07:00:42.935Z,11.13
2022-10-13T07:03:50.650Z,8.60
2022-10-13T07:06:56.749Z,39.10
2022-10-13T07:10:03.164Z,21.00
2022-10-13T07:13:09.883Z,21.93
2022-10-13T07:16:17.884Z,20.60
2022-10-13T07:19:24.078Z,14.67
2022-10-13T07:22:31.060Z,7.57
2022-10-13T07:25:37.472Z,11.10
2022-10-13T07:28:44.207Z,12.57
2022-10-13T07:31:52.281Z,8.23
2022-10-13T07:34:58.348Z,7.93
2022-10-13T07:38:04.768Z,6.27
2022-10-13T07:41:12.722Z,6.57
2022-10-13T07:44:18.911Z,8.10
2022-10-13T07:47:26.536Z,6.97
2022-10-13T07:50:33.115Z,6.27
2022-10-13T07:53:40.351Z,9.73
2022-10-13T07:56:46.695Z,9.40
2022-10-13T07:59:52.814Z,10.10
2022-10-13T08:03:00.454Z,10.70
2022-10-13T08:06:08.176Z,10.83
2022-10-13T08:09:14.535Z,19.13
2022-10-13T08:12:21.356Z,19.63
2022-10-13T08:15:28.176Z,15.50
2022-10-13T08:18:36.060Z,7.77
2022-10-13T08:21:59.654Z,10.80
2022-10-13T08:25:07.385Z,13.90
2022-10-13T08:28:20.115Z,10.83
2022-10-13T08:31:26.146Z,12.07
2022-10-13T08:34:34.221Z,14.20
2022-10-13T08:37:39.978Z,13.97
2022-10-13T08:40:48.686Z,13.43
2022-10-13T08:44:33.953Z,10.43
2022-10-13T08:47:41.091Z,7.87
2022-10-13T08:50:52.033Z,8.60
2022-10-13T08:53:58.578Z,4.83
2022-10-13T08:57:06.709Z,10.70
2022-10-13T09:00:15.298Z,9.40
2022-10-13T09:03:25.172Z,6.33
2022-10-13T09:06:37.923Z,11.50
2022-10-13T09:09:44.172Z,8.53
2022-10-13T09:12:51.728Z,22.07
2022-10-13T09:15:59.606Z,12.60
2022-10-13T09:19:22.479Z,9.63
2022-10-13T09:22:31.207Z,8.47
2022-10-13T09:25:42.077Z,10.87
2022-10-13T10:41:05.668Z,8.13
2022-10-13T10:44:14.540Z,11.53
2022-10-13T10:47:26.388Z,6.13
2022-10-13T10:50:35.369Z,22.23
2022-10-13T10:53:50.193Z,4.00
2022-10-13T10:57:03.876Z,6.53
2022-10-13T11:00:16.642Z,6.77
2022-10-13T11:03:36.578Z,4.57
2022-10-13T11:06:42.482Z,5.57
2022-10-13T11:10:21.351Z,3.17
2022-10-13T11:13:28.742Z,7.43
2022-10-13T11:16:37.154Z,3.87
2022-10-13T11:19:43.567Z,3.67
2022-10-13T11:23:28.320Z,4.20
2022-10-13T11:26:43.747Z,4.63
2022-10-13T11:29:57.239Z,7.37
2022-10-13T11:33:09.393Z,5.27
2022-10-13T11:36:49.744Z,5.73
2022-10-13T11:40:17.199Z,5.37
2022-10-13T11:43:37.100Z,7.67
2022-10-13T11:47:02.795Z,10.43
2022-10-13T11:50:20.048Z,7.90
2022-10-13T11:53:32.818Z,5.63
2022-10-13T11:56:48.765Z,4.57
2022-10-13T11:59:56.888Z,6.93
2022-10-13T12:03:04.933Z,4.17
2022-10-13T12:06:33.241Z,4.80
2022-10-13T12:09:50.810Z,4.60
2022-10-13T12:12:58.448Z,4.47
2022-10-13T12:16:06.680Z,3.57
2022-10-13T12:19:22.568Z,3.23
2022-10-13T12:22:29.464Z,4.53
2022-10-13T12:25:35.482Z,2.93
2022-10-13T12:28:52.353Z,3.43
2022-10-13T12:31:59.646Z,4.70
2022-10-13T12:35:19.582Z,4.33
2022-10-13T12:38:26.104Z,4.17
2022-10-13T12:41:35.703Z,3.37
2022-10-13T12:44:42.877Z,6.87
2022-10-13T12:47:51.903Z,3.90
2022-10-13T12:51:17.407Z,4.97
2022-10-13T12:54:28.101Z,2.93
2022-10-13T12:57:38.529Z,6.13
2022-10-13T13:00:45.062Z,7.37
2022-10-13T13:03:57.268Z,7.43
2022-10-13T13:07:06.907Z,3.33
2022-10-13T13:10:19.128Z,3.80
2022-10-13T13:13:26.195Z,4.57
2022-10-13T13:16:32.337Z,4.23
2022-10-13T13:19:39.717Z,4.40
2022-10-13T13:22:47.413Z,5.27
2022-10-13T13:26:02.543Z,4.87
2022-10-13T13:29:11.712Z,7.73
2022-10-13T13:32:20.517Z,4.70
2022-10-13T13:35:27.052Z,4.20
2022-10-13T13:38:34.799Z,5.03
2022-10-13T13:41:40.792Z,4.40
2022-10-13T13:44:47.350Z,4.20
2022-10-13T13:47:56.881Z,4.70
2022-10-13T13:51:06.888Z,6.97
2022-10-13T13:54:14.572Z,15.23
2022-10-13T13:57:21.798Z,41.70
2022-10-13T14:00:28.600Z,21.60
2022-10-13T14:03:34.721Z,14.07
2022-10-13T14:06:40.924Z,11.07
2022-10-13T14:09:48.899Z,9.50
2022-10-13T14:12:55.758Z,8.83
2022-10-13T14:16:03.544Z,5.83
2022-10-13T14:19:10.395Z,4.93
2022-10-13T14:22:16.499Z,5.63
2022-10-13T14:25:24.103Z,5.70
2022-10-13T14:28:30.245Z,5.23
2022-10-13T14:31:36.615Z,6.07
2022-10-13T14:34:43.156Z,7.60
2022-10-13T14:37:49.498Z,6.83
2022-10-13T14:41:01.541Z,8.20
2022-10-13T14:44:07.541Z,23.27
2022-10-13T14:47:13.763Z,24.57
2022-10-13T14:50:20.214Z,11.17
2022-10-13T14:53:26.911Z,11.27
2022-10-13T14:56:34.425Z,7.37
2022-10-13T14:59:40.568Z,7.73
2022-10-13T15:02:46.682Z,8.23
2022-10-13T15:05:53.021Z,4.77
2022-10-13T15:08:59.690Z,6.77
2022-10-13T15:12:07.891Z,8.57
2022-10-13T15:15:14.424Z,41.07
2022-10-13T15:18:20.571Z,35.57
2022-10-13T15:21:27.249Z,39.20
2022-10-13T15:24:33.448Z,30.90
2022-10-13T15:27:42.209Z,32.97
2022-10-13T15:30:49.112Z,26.23
2022-10-13T15:33:55.513Z,31.53
2022-10-13T15:37:02.100Z,28.37
2022-10-13T15:40:09.874Z,24.93
2022-10-13T15:43:18.949Z,47.43
2022-10-13T15:46:26.415Z,62.90
2022-10-13T15:49:37.449Z,31.83
2022-10-13T15:52:43.761Z,30.33
2022-10-13T15:55:50.206Z,29.63
2022-10-13T15:58:57.709Z,29.60
2022-10-13T16:02:03.975Z,28.77
2022-10-13T16:05:13.278Z,28.23
2022-10-13T16:08:19.788Z,28.60
2022-10-13T16:11:26.716Z,23.37
2022-10-13T16:14:34.706Z,32.13
2022-10-13T16:17:41.306Z,41.57
2022-10-13T16:20:47.581Z,44.13
2022-10-13T16:23:54.113Z,54.37
2022-10-13T16:27:00.260Z,58.80
2022-10-13T16:30:09.426Z,71.07
2022-10-13T16:33:15.539Z,55.23
2022-10-13T16:36:22.893Z,51.83
2022-10-13T16:39:29.097Z,49.93
2022-10-13T16:42:35.517Z,62.53
2022-10-13T16:45:59.133Z,67.37
2022-10-13T16:49:06.498Z,73.13
2022-10-13T16:52:12.537Z,73.90
2022-10-13T16:55:18.916Z,89.83
2022-10-13T16:58:24.956Z,74.93
2022-10-13T17:01:34.075Z,61.63
2022-10-13T17:04:40.054Z,36.93
2022-10-13T17:07:46.403Z,44.10
2022-10-13T17:10:57.954Z,47.97
2022-10-13T17:14:05.667Z,51.53
2022-10-13T17:17:12.976Z,41.57
2022-10-13T17:20:19.450Z,40.53
2022-10-13T17:23:26.373Z,57.97
2022-10-13T17:26:32.576Z,66.67
2022-10-13T17:29:38.663Z,60.20
2022-10-13T17:32:46.239Z,50.20
2022-10-13T17:35:52.145Z,59.90
2022-10-13T17:39:03.059Z,56.80
2022-10-13T17:42:09.067Z,60.50
2022-10-13T17:45:15.099Z,61.37
2022-10-13T17:48:23.310Z,63.93
2022-10-13T17:51:29.890Z,61.03
2022-10-13T17:54:36.272Z,57.17
2022-10-13T17:57:42.676Z,68.10
2022-10-13T18:01:11.845Z,68.37
2022-10-13T18:04:20.018Z,61.33
2022-10-13T18:07:25.884Z,73.60
2022-10-13T18:10:50.859Z,58.30
2022-10-13T18:14:00.332Z,62.77
2022-10-13T18:17:06.319Z,59.70
2022-10-13T18:20:14.030Z,65.70
2022-10-13T18:23:19.804Z,55.53
2022-10-13T18:26:27.233Z,53.47
2022-10-13T18:29:33.502Z,33.83
2022-10-13T18:32:39.599Z,26.13
2022-10-13T18:35:46.963Z,25.27
2022-10-13T18:38:53.886Z,54.50
2022-10-13T18:42:00.018Z,49.07
2022-10-13T18:45:06.275Z,53.07
2022-10-13T18:48:12.852Z,47.07
2022-10-13T18:51:21.233Z,40.80
2022-10-13T18:54:29.062Z,35.83
2022-10-13T18:57:38.090Z,38.93
2022-10-13T19:00:44.407Z,43.57
2022-10-13T19:03:52.190Z,44.23
2022-10-13T19:06:59.742Z,47.67
2022-10-13T19:10:06.563Z,48.73
2022-10-13T19:13:12.657Z,47.07
2022-10-13T19:16:20.880Z,36.87
2022-10-13T19:19:27.257Z,39.60
2022-10-13T19:22:35.062Z,31.73
2022-10-13T19:25:43.066Z,32.83
2022-10-13T19:28:49.306Z,33.87
2022-10-13T19:31:55.595Z,61.63
2022-10-13T19:35:01.892Z,40.43
2022-10-13T19:38:10.575Z,41.17
2022-10-13T19:41:16.827Z,45.83
2022-10-13T19:44:24.576Z,35.43
2022-10-13T19:47:30.825Z,41.13
2022-10-13T19:50:37.051Z,43.80
2022-10-13T19:53:45.234Z,45.03
2022-10-13T19:56:52.056Z,37.80
2022-10-13T19:59:58.366Z,17.40
2022-10-13T20:03:05.364Z,22.93
2022-10-13T20:06:11.515Z,55.87
2022-10-13T20:09:19.546Z,47.93
2022-10-13T20:12:26.031Z,33.43
2022-10-13T20:15:32.255Z,30.77
2022-10-13T20:18:38.989Z,24.40
2022-10-13T20:21:45.031Z,29.43
2022-10-13T20:24:52.669Z,28.93
2022-10-13T20:27:58.506Z,31.53
2022-10-13T20:31:06.145Z,18.37
2022-10-13T20:34:12.668Z,19.97
2022-10-13T20:37:18.990Z,22.67
2022-10-13T20:40:26.618Z,24.73
2022-10-13T20:43:32.891Z,19.23
2022-10-13T20:46:39.467Z,25.23
2022-10-13T20:49:45.583Z,44.30
2022-10-13T20:52:51.939Z,19.47
2022-10-13T20:56:00.839Z,22.47
2022-10-13T20:59:08.828Z,17.67
2022-10-13T21:02:16.749Z,13.60
2022-10-13T21:05:22.849Z,23.27
2022-10-13T21:08:29.252Z,25.60
2022-10-13T21:11:38.191Z,19.43
2022-10-13T21:14:44.311Z,20.23
2022-10-13T21:17:52.213Z,16.27
2022-10-13T21:21:03.845Z,16.70
2022-10-13T21:24:11.527Z,23.47
2022-10-13T21:27:19.728Z,16.33
2022-10-13T21:30:26.675Z,14.97
2022-10-13T21:33:35.518Z,16.13
2022-10-13T21:36:44.571Z,14.13
2022-10-13T21:39:50.922Z,10.07
2022-10-13T21:42:58.332Z,8.30
2022-10-13T21:46:16.118Z,11.90
2022-10-13T21:49:22.118Z,14.33
2022-10-13T21:52:28.599Z,13.57
2022-10-13T21:55:34.527Z,15.80
2022-10-13T21:58:42.318Z,15.70
2022-10-13T22:01:48.340Z,17.10
2022-10-13T22:04:54.780Z,14.03
2022-10-13T22:08:01.476Z,15.33
2022-10-13T22:11:09.816Z,14.67
2022-10-13T22:14:17.296Z,13.47
2022-10-13T22:17:24.107Z,16.90
2022-10-13T22:20:30.127Z,11.73
2022-10-13T22:23:36.514Z,10.90
2022-10-13T22:26:44.295Z,12.10
2022-10-13T22:29:52.024Z,10.17
2022-10-13T22:32:58.291Z,14.37
2022-10-13T22:36:08.581Z,13.77
2022-10-13T22:39:15.591Z,18.20
2022-10-13T22:42:22.357Z,14.57
2022-10-13T22:45:29.626Z,12.73
2022-10-13T22:48:40.353Z,11.30
2022-10-13T22:51:46.684Z,12.00
2022-10-13T22:54:52.900Z,8.73
2022-10-13T22:57:59.169Z,10.67
2022-10-13T23:01:11.413Z,11.03
2022-10-13T23:04:17.349Z,8.33
2022-10-13T23:07:23.748Z,7.93
2022-10-13T23:10:30.070Z,10.10
2022-10-13T23:13:36.622Z,10.43
2022-10-13T23:16:44.157Z,9.47
2022-10-13T23:19:50.198Z,7.93
2022-10-13T23:22:56.477Z,10.00
2022-10-13T23:26:04.463Z,11.20
2022-10-13T23:29:11.286Z,10.53
2022-10-13T23:32:18.784Z,10.67
2022-10-13T23:35:25.059Z,9.27
2022-10-13T23:38:33.029Z,6.47
2022-10-13T23:41:39.518Z,12.87
2022-10-13T23:44:45.602Z,8.67
2022-10-13T23:47:53.336Z,13.60
2022-10-13T23:50:59.780Z,10.37
2022-10-13T23:54:06.051Z,7.50
2022-10-13T23:57:12.168Z,12.43
